Kettlersville, Ohio
Current Conditions -  °F | °C
As of 6:14 PM on Thursday 20 Nov 2014 (Local Time) from KAXV Reporting Station
Overcast Overcast  
Wind Chill: 15°   Ceiling: 4500
Heat Index: 27°   Visibility: 10mi
Dew Point: 18°   Wind: 15mph
Humidity: 69%   Direction: 240°WSW
Pressure: 30.11"   Gusts: 20mph
Location:  40.44°N, 84.26°W
Report Text: KAXV 202314Z AUTO 24013G17KT 10SM OVC045 M03/M08 A3011 RMK AO2
Loading
Personal Weather Stations






























Interactive Weather Map New forecast layout! Learn more

10-Day Weather Forecast

Advertisements
Track Severe Weather on mobile